Time;durP1;ratioP1;P1;durP2;ratioP2;P2;SDS_P1;SDS_P2;PMS_P1;PMS_P2;Temp;Humidity;BMP_temperature;BMP_pressure;BME280_temperature;BME280_humidity;BME280_pressure;Samples;Min_cycle;Max_cycle;Signal;HPM_P1;HPM_P2
2023/04/16 00:01:10;;;;;;;25.27;15.30;;;;;;;7.48;95.13;101435.75;5117165;28;20189;-70
2023/04/16 00:03:37;;;;;;;23.30;15.63;;;;;;;7.51;95.26;101446.28;5117115;28;20188;-70
2023/04/16 00:06:04;;;;;;;26.43;15.67;;;;;;;7.50;95.50;101446.38;5116968;28;20213;-70
2023/04/16 00:08:30;;;;;;;23.67;15.60;;;;;;;7.48;95.08;101434.91;5117334;28;20670;-70
2023/04/16 00:10:57;;;;;;;22.87;15.80;;;;;;;7.50;95.66;101436.56;5117274;28;20558;-70
2023/04/16 00:13:24;;;;;;;25.40;15.47;;;;;;;7.53;95.03;101446.22;5117233;28;20174;-70
2023/04/16 00:15:51;;;;;;;25.80;16.87;;;;;;;7.50;95.08;101443.69;5116802;28;20203;-70
2023/04/16 00:18:18;;;;;;;25.30;15.90;;;;;;;7.52;94.77;101442.69;5116790;28;20185;-70
2023/04/16 00:20:44;;;;;;;20.50;15.73;;;;;;;7.50;95.46;101447.22;5116760;28;20247;-70
2023/04/16 00:23:11;;;;;;;27.97;17.27;;;;;;;7.51;95.16;101448.94;5117008;28;20179;-70
2023/04/16 00:25:37;;;;;;;31.70;16.50;;;;;;;7.53;95.28;101444.41;5117404;28;20528;-70
2023/04/16 00:28:04;;;;;;;28.33;16.23;;;;;;;7.49;95.08;101447.28;5116553;28;20189;-70
2023/04/16 00:30:30;;;;;;;24.83;16.37;;;;;;;7.46;95.06;101441.16;5116623;28;20259;-70
2023/04/16 00:32:57;;;;;;;22.10;15.83;;;;;;;7.50;95.50;101446.38;5116575;28;20186;-70
2023/04/16 00:35:23;;;;;;;23.17;16.97;;;;;;;7.50;95.02;101447.22;5116477;28;20202;-70
2023/04/16 00:37:49;;;;;;;26.93;16.53;;;;;;;7.46;95.12;101448.28;5116474;28;20208;-70
2023/04/16 00:40:16;;;;;;;22.20;15.63;;;;;;;7.46;95.24;101453.63;5098219;28;20559;-70
2023/04/16 00:42:42;;;;;;;17.23;15.37;;;;;;;7.51;95.17;101453.41;5098152;28;20185;-70
2023/04/16 00:45:09;;;;;;;22.97;15.90;;;;;;;7.50;95.38;101449.88;5097966;28;20208;-70
2023/04/16 00:47:37;;;;;;;23.73;15.30;;;;;;;7.52;94.99;101452.47;5098133;28;20189;-70
2023/04/16 00:50:03;;;;;;;27.90;17.13;;;;;;;7.52;95.30;101453.34;5116219;28;20272;-71
2023/04/16 00:52:33;;;;;;;31.87;18.43;;;;;;;7.49;95.32;101448.13;5116182;28;20193;-70
2023/04/16 00:55:00;;;;;;;33.90;18.10;;;;;;;7.46;95.63;101457.16;5116313;28;20695;-70
2023/04/16 00:57:26;;;;;;;28.57;16.83;;;;;;;7.48;95.37;101449.09;5116448;28;20632;-70
2023/04/16 00:59:53;;;;;;;29.47;18.57;;;;;;;7.50;95.42;101454.38;5116037;28;20181;-70
2023/04/16 01:02:20;;;;;;;28.70;18.40;;;;;;;7.48;95.63;101448.22;5115985;28;20271;-70
2023/04/16 01:04:49;;;;;;;28.20;17.07;;;;;;;7.54;95.56;101453.25;5115840;28;20215;-70
2023/04/16 01:07:16;;;;;;;23.60;16.97;;;;;;;7.56;95.31;101456.72;5115811;28;20201;-70
2023/04/16 01:09:42;;;;;;;21.77;16.47;;;;;;;7.57;95.64;101455.81;5114838;28;20197;-70
2023/04/16 01:12:09;;;;;;;33.27;18.40;;;;;;;7.50;95.41;101451.69;5115782;28;20182;-70
2023/04/16 01:14:36;;;;;;;32.93;18.80;;;;;;;7.54;95.77;101456.81;5115688;28;20209;-70
2023/04/16 01:17:02;;;;;;;35.90;18.07;;;;;;;7.57;95.58;101461.13;5116040;28;20605;-70
2023/04/16 01:19:35;;;;;;;25.83;17.80;;;;;;;7.54;95.35;101464.81;5097378;28;20284;-70
2023/04/16 01:22:02;;;;;;;29.37;19.30;;;;;;;7.56;95.40;101460.25;5116232;28;20227;-70
2023/04/16 01:24:29;;;;;;;25.93;18.70;;;;;;;7.55;95.54;101463.84;5115782;28;20675;-69
2023/04/16 01:26:58;;;;;;;36.13;19.40;;;;;;;7.56;95.23;101460.25;5097625;28;20310;-70
2023/04/16 01:29:25;;;;;;;31.87;19.10;;;;;;;7.59;95.32;101467.22;5115757;28;20273;-70
2023/04/16 01:31:53;;;;;;;30.90;19.67;;;;;;;7.58;95.66;101471.69;5097260;28;20549;-70
2023/04/16 01:34:35;;;;;;;35.57;19.27;;;;;;;7.61;95.63;101463.59;5097413;28;20217;-70
2023/04/16 01:37:02;;;;;;;36.67;20.23;;;;;;;7.61;95.91;101463.59;5097077;28;20677;-70
2023/04/16 01:39:29;;;;;;;35.13;19.20;;;;;;;7.60;95.45;101467.16;5115332;28;20571;-70
2023/04/16 01:41:56;;;;;;;32.27;19.23;;;;;;;7.60;95.06;101469.84;5096987;28;20227;-70
2023/04/16 01:44:22;;;;;;;38.50;21.87;;;;;;;7.66;95.02;101469.56;5115277;28;20205;-70
2023/04/16 01:46:49;;;;;;;33.23;20.60;;;;;;;7.66;95.41;101474.88;5115374;28;20204;-70
2023/04/16 01:49:15;;;;;;;32.33;20.40;;;;;;;7.69;95.23;101478.34;5115063;28;20591;-70
2023/04/16 01:51:42;;;;;;;35.07;21.43;;;;;;;7.71;94.87;101473.78;5096964;28;20209;-70
2023/04/16 01:54:09;;;;;;;37.37;20.77;;;;;;;7.74;95.39;101473.66;5096733;28;20582;-70
2023/04/16 01:56:35;;;;;;;38.07;19.90;;;;;;;7.74;94.90;101469.19;5114931;28;20183;-70
2023/04/16 01:59:02;;;;;;;35.00;21.17;;;;;;;7.81;94.82;101467.09;5096662;28;20195;-70
2023/04/16 02:01:34;;;;;;;35.30;22.03;;;;;;;7.79;95.25;101472.47;5097210;28;20216;-70
2023/04/16 02:04:01;;;;;;;37.17;20.93;;;;;;;7.77;94.49;101474.34;5096543;28;20556;-71
2023/04/16 02:06:27;;;;;;;40.13;22.43;;;;;;;7.83;94.81;101468.75;5096405;28;20740;-70
2023/04/16 02:08:54;;;;;;;46.83;23.07;;;;;;;7.82;94.62;101474.13;5096450;28;20241;-70
2023/04/16 02:11:20;;;;;;;34.07;20.80;;;;;;;7.75;94.56;101473.56;5114657;28;20196;-70
2023/04/16 02:13:48;;;;;;;45.13;25.07;;;;;;;7.83;94.36;101474.06;5097366;28;20197;-70
2023/04/16 02:16:16;;;;;;;32.60;20.70;;;;;;;7.80;94.62;101468.88;5096507;28;20246;-70
2023/04/16 02:18:47;;;;;;;46.33;25.80;;;;;;;7.84;94.31;101472.25;5096585;28;20234;-70
2023/04/16 02:21:15;;;;;;;48.20;26.57;;;;;;;7.84;94.60;101469.59;5095831;28;20195;-70
2023/04/16 02:23:46;;;;;;;39.43;23.57;;;;;;;7.90;93.94;101474.63;5114708;28;20179;-70
2023/04/16 02:26:12;;;;;;;54.67;27.53;;;;;;;7.90;94.49;101463.94;5114522;28;20287;-70
2023/04/16 02:28:39;;;;;;;59.43;27.97;;;;;;;7.95;93.85;101479.72;5114934;28;20165;-70
2023/04/16 02:31:07;;;;;;;48.53;27.00;;;;;;;7.90;94.00;101479.94;5096071;28;20199;-70
2023/04/16 02:33:39;;;;;;;50.40;28.20;;;;;;;7.94;94.02;101470.00;5096077;28;20189;-70
2023/04/16 02:36:06;;;;;;;54.60;26.67;;;;;;;7.96;93.73;101477.00;5114145;28;20189;-70
2023/04/16 02:38:33;;;;;;;41.23;23.63;;;;;;;7.97;93.45;101477.84;5114164;28;20184;-70
2023/04/16 02:40:59;;;;;;;39.73;20.97;;;;;;;7.94;93.78;101476.19;5095918;28;20214;-70
2023/04/16 02:43:27;;;;;;;40.40;21.70;;;;;;;7.93;94.07;101473.63;5095840;28;20239;-70
2023/04/16 02:45:53;;;;;;;41.53;23.07;;;;;;;7.93;93.67;101474.50;5113911;28;20204;-70
2023/04/16 02:48:19;;;;;;;40.80;23.73;;;;;;;7.95;93.28;101477.06;5095799;28;20630;-70
2023/04/16 02:50:46;;;;;;;45.20;24.53;;;;;;;7.90;93.69;101482.63;5113961;28;20199;-70
2023/04/16 02:53:12;;;;;;;43.13;22.63;;;;;;;7.89;93.88;101484.44;5095733;28;20194;-70
2023/04/16 02:55:38;;;;;;;47.20;24.60;;;;;;;7.91;93.53;101484.38;5095873;28;20693;-70
2023/04/16 02:58:05;;;;;;;55.67;28.60;;;;;;;7.94;94.00;101481.53;5114166;28;20181;-70
2023/04/16 03:00:31;;;;;;;39.03;23.17;;;;;;;7.92;94.11;101482.56;5114407;28;20185;-70
2023/04/16 03:02:58;;;;;;;41.23;23.57;;;;;;;7.95;94.06;101490.41;5096442;28;20555;-70
2023/04/16 03:05:24;;;;;;;44.33;23.53;;;;;;;7.91;93.71;101487.03;5095678;28;20709;-70
2023/04/16 03:07:55;;;;;;;47.07;23.00;;;;;;;7.94;94.13;101486.00;5113838;28;20211;-70
2023/04/16 03:10:22;;;;;;;34.37;22.47;;;;;;;7.98;93.75;101477.78;5114079;28;20529;-70
2023/04/16 03:12:48;;;;;;;36.97;23.10;;;;;;;7.96;93.89;101482.34;5095501;28;20238;-70
2023/04/16 03:15:15;;;;;;;48.23;24.27;;;;;;;7.94;94.06;101475.34;5113786;28;20745;-70
2023/04/16 03:17:41;;;;;;;36.53;22.23;;;;;;;7.94;93.46;101480.69;5114179;28;20185;-70
2023/04/16 03:20:09;;;;;;;41.60;24.07;;;;;;;7.94;93.42;101480.69;5113933;28;20192;-71
2023/04/16 03:22:35;;;;;;;42.97;24.03;;;;;;;7.99;93.91;101486.66;5113860;28;20187;-71
2023/04/16 03:25:01;;;;;;;44.27;24.10;;;;;;;8.00;93.96;101488.41;5095247;28;20217;-71
2023/04/16 03:27:29;;;;;;;40.00;23.97;;;;;;;8.01;93.27;101490.13;5095769;28;20213;-70
2023/04/16 03:29:56;;;;;;;43.70;24.17;;;;;;;7.97;93.73;101494.72;5113613;28;20279;-71
2023/04/16 03:32:23;;;;;;;41.90;25.40;;;;;;;7.97;94.09;101494.72;5097279;28;20645;-71
2023/04/16 03:34:49;;;;;;;49.00;25.80;;;;;;;7.97;94.28;101496.53;5099942;28;20211;-70
2023/04/16 03:37:16;;;;;;;48.63;25.87;;;;;;;7.98;93.40;101500.94;5099428;28;20193;-71
2023/04/16 03:39:42;;;;;;;52.13;25.60;;;;;;;7.99;93.61;101503.50;5117570;28;20195;-71
2023/04/16 03:42:10;;;;;;;49.70;26.40;;;;;;;7.97;93.74;101496.53;5099373;28;20193;-71
2023/04/16 03:44:36;;;;;;;48.87;24.80;;;;;;;8.01;93.47;101498.97;5117435;28;20206;-71
2023/04/16 03:47:02;;;;;;;47.77;25.53;;;;;;;8.04;93.40;101501.47;5117390;28;20299;-71
2023/04/16 03:49:29;;;;;;;43.67;24.80;;;;;;;8.05;93.41;101503.22;5099196;28;20201;-71
2023/04/16 03:51:56;;;;;;;50.03;25.20;;;;;;;8.04;93.12;101497.94;5099115;28;20244;-71
2023/04/16 03:54:24;;;;;;;51.53;26.63;;;;;;;8.09;93.71;101498.59;5117326;28;20207;-71
2023/04/16 03:56:59;;;;;;;45.97;25.80;;;;;;;8.04;93.24;101506.81;5099356;28;20188;-71
2023/04/16 03:59:26;;;;;;;50.63;25.80;;;;;;;8.05;93.62;101502.38;5117825;28;20564;-71
2023/04/16 04:01:52;;;;;;;49.47;25.53;;;;;;;8.09;93.38;101504.81;5117465;28;20210;-71
2023/04/16 04:04:20;;;;;;;50.40;27.33;;;;;;;8.06;93.13;101504.94;5098848;28;20219;-71
2023/04/16 04:06:46;;;;;;;50.07;26.00;;;;;;;8.10;93.67;101506.53;5117029;28;20205;-71
2023/04/16 04:09:15;;;;;;;50.33;26.57;;;;;;;8.09;93.15;101504.81;5098777;28;20191;-71
2023/04/16 04:11:42;;;;;;;53.00;26.83;;;;;;;8.07;93.40;101506.69;5116986;28;20185;-71
2023/04/16 04:14:08;;;;;;;56.77;28.93;;;;;;;8.07;93.48;101514.69;5117164;28;20203;-71
2023/04/16 04:16:34;;;;;;;56.93;27.93;;;;;;;8.10;93.32;101511.88;5098612;28;20235;-71
2023/04/16 04:19:01;;;;;;;57.87;29.07;;;;;;;8.16;93.34;101516.03;5117190;28;20525;-71
2023/04/16 04:21:28;;;;;;;59.50;28.47;;;;;;;8.15;93.69;101510.78;5116804;28;20189;-70
2023/04/16 04:23:55;;;;;;;64.30;28.13;;;;;;;8.14;93.51;101519.72;5098664;28;20193;-70
2023/04/16 04:26:21;;;;;;;65.50;29.47;;;;;;;8.17;93.40;101522.25;5098359;28;20220;-70
2023/04/16 04:28:48;;;;;;;60.87;28.70;;;;;;;8.18;93.29;101518.63;5098424;28;20200;-70
2023/04/16 04:31:16;;;;;;;54.63;25.60;;;;;;;8.17;93.37;101524.91;5098540;28;20204;-70
2023/04/16 04:33:43;;;;;;;52.67;26.63;;;;;;;8.17;92.93;101527.59;5098575;28;20624;-70
2023/04/16 04:36:09;;;;;;;57.77;26.57;;;;;;;8.19;92.63;101515.00;5116448;28;20579;-71
2023/04/16 04:38:36;;;;;;;40.70;23.63;;;;;;;8.21;93.00;101527.38;5098270;28;20200;-70
2023/04/16 04:41:02;;;;;;;53.57;26.83;;;;;;;8.25;92.67;101525.41;5098169;28;20196;-70
2023/04/16 04:43:33;;;;;;;54.37;28.00;;;;;;;8.23;92.78;101527.28;5097836;28;20209;-71
2023/04/16 04:46:00;;;;;;;64.93;27.83;;;;;;;8.25;92.59;101528.06;5097948;28;20218;-71
2023/04/16 04:48:27;;;;;;;57.87;28.70;;;;;;;8.31;92.17;101528.63;5098218;28;20219;-71
2023/04/16 04:50:54;;;;;;;64.33;27.87;;;;;;;8.27;92.61;101531.53;5097963;28;20199;-71
2023/04/16 04:53:21;;;;;;;62.23;28.63;;;;;;;8.35;92.41;101532.00;5097998;28;20223;-71
2023/04/16 04:55:47;;;;;;;51.80;25.57;;;;;;;8.27;91.95;101539.53;5116089;28;20602;-71
2023/04/16 04:58:19;;;;;;;59.20;27.07;;;;;;;8.25;92.40;101544.06;5098431;28;20180;-70
2023/04/16 05:00:46;;;;;;;59.17;26.13;;;;;;;8.28;92.33;101541.25;5097806;28;20228;-70
2023/04/16 05:03:18;;;;;;;49.00;26.20;;;;;;;8.23;92.17;101538.81;5116280;28;20193;-70
2023/04/16 05:05:45;;;;;;;50.63;25.10;;;;;;;8.23;92.13;101545.94;5116451;28;20248;-70
2023/04/16 05:08:11;;;;;;;45.30;25.97;;;;;;;8.25;91.83;101544.94;5116669;28;20295;-70
2023/04/16 05:10:38;;;;;;;45.10;25.67;;;;;;;8.21;92.34;101548.72;5115957;28;20193;-70
2023/04/16 05:13:04;;;;;;;49.67;27.57;;;;;;;8.24;92.26;101545.88;5116192;28;20184;-70
2023/04/16 05:15:30;;;;;;;50.63;26.50;;;;;;;8.23;91.72;101551.28;5115800;28;20296;-70
2023/04/16 05:17:57;;;;;;;53.57;27.97;;;;;;;8.26;91.55;101552.00;5118672;28;20185;-70
2023/04/16 05:20:23;;;;;;;50.80;25.40;;;;;;;8.28;91.57;101552.81;5130193;28;20591;-70
2023/04/16 05:22:50;;;;;;;44.93;25.37;;;;;;;8.27;91.16;101551.06;5129019;28;20201;-70
2023/04/16 05:25:17;;;;;;;45.80;26.17;;;;;;;8.32;91.16;101556.19;5128323;28;20571;-70
2023/04/16 05:27:43;;;;;;;49.83;25.80;;;;;;;8.26;90.80;101565.34;5120168;28;20213;-70
2023/04/16 05:30:10;;;;;;;48.57;26.17;;;;;;;8.26;90.91;101567.13;5116374;28;20191;-70
2023/04/16 05:32:38;;;;;;;57.43;25.87;;;;;;;8.26;90.96;101562.69;5116129;28;20260;-70
2023/04/16 05:35:05;;;;;;;55.80;27.23;;;;;;;8.23;91.07;101568.16;5116020;28;20213;-70
2023/04/16 05:37:31;;;;;;;45.47;26.00;;;;;;;8.26;90.54;101572.47;5115819;28;20308;-70
2023/04/16 05:39:58;;;;;;;50.70;25.20;;;;;;;8.26;90.60;101573.38;5115403;28;20195;-70
2023/04/16 05:42:24;;;;;;;49.73;26.57;;;;;;;8.28;90.35;101582.16;5115896;28;20196;-70
2023/04/16 05:44:51;;;;;;;47.70;25.43;;;;;;;8.24;90.97;101575.25;5115647;28;20737;-70
2023/04/16 05:47:17;;;;;;;43.13;24.63;;;;;;;8.22;90.96;101577.13;5115272;28;20208;-70
2023/04/16 05:49:44;;;;;;;52.00;26.43;;;;;;;8.24;90.65;101593.91;5115224;28;20189;-70
2023/04/16 05:52:10;;;;;;;51.03;25.27;;;;;;;8.26;90.44;101586.72;5117599;28;20190;-71
2023/04/16 05:54:37;;;;;;;52.13;25.90;;;;;;;8.25;90.63;101594.78;5114627;28;20648;-70
2023/04/16 05:57:03;;;;;;;44.93;23.63;;;;;;;8.26;90.47;101592.03;5114993;28;20172;-70
2023/04/16 05:59:30;;;;;;;42.83;24.60;;;;;;;8.35;90.03;101597.88;5115473;28;20174;-70
2023/04/16 06:01:56;;;;;;;46.50;25.57;;;;;;;8.39;90.08;101597.63;5114891;28;20185;-70
2023/04/16 06:04:23;;;;;;;51.90;26.13;;;;;;;8.40;90.23;101598.53;5114830;28;20287;-70
2023/04/16 06:06:49;;;;;;;47.70;25.83;;;;;;;8.37;90.10;101606.66;5114725;28;20197;-70
2023/04/16 06:09:17;;;;;;;55.37;26.23;;;;;;;8.38;90.72;101611.94;5114999;28;20188;-70
2023/04/16 06:11:43;;;;;;;46.67;27.20;;;;;;;8.43;89.96;101601.94;5115234;28;20185;-70
2023/04/16 06:14:10;;;;;;;50.03;25.83;;;;;;;8.40;90.17;101603.88;5114538;28;20215;-70
2023/04/16 06:16:36;;;;;;;45.00;25.33;;;;;;;8.43;90.36;101603.75;5114616;28;20185;-70
2023/04/16 06:19:02;;;;;;;48.40;26.53;;;;;;;8.44;90.07;101605.47;5114524;28;20201;-70
2023/04/16 06:21:30;;;;;;;47.73;27.17;;;;;;;8.46;89.75;101609.78;5114583;28;20198;-70
2023/04/16 06:23:56;;;;;;;45.97;26.87;;;;;;;8.47;89.80;101605.31;5114902;28;20195;-70
2023/04/16 06:26:23;;;;;;;50.93;26.90;;;;;;;8.51;89.13;101615.75;5114493;28;20181;-70
2023/04/16 06:28:49;;;;;;;47.57;25.70;;;;;;;8.52;89.16;101614.84;5114250;28;20204;-70
2023/04/16 06:31:16;;;;;;;46.57;25.63;;;;;;;8.54;89.68;101620.09;5114617;28;20188;-70
2023/04/16 06:33:42;;;;;;;51.53;26.77;;;;;;;8.59;89.53;101619.84;5114552;28;20268;-70
2023/04/16 06:36:10;;;;;;;48.57;26.27;;;;;;;8.53;89.18;101621.03;5114139;28;20295;-71
2023/04/16 06:38:36;;;;;;;48.03;26.80;;;;;;;8.51;89.78;101620.25;5114805;28;20165;-71
2023/04/16 06:41:03;;;;;;;58.20;27.23;;;;;;;8.57;89.57;101627.97;5114439;28;20548;-71
2023/04/16 06:43:31;;;;;;;48.67;27.37;;;;;;;8.59;89.39;101627.88;5096315;28;20670;-71
2023/04/16 06:45:57;;;;;;;51.03;27.67;;;;;;;8.62;88.83;101627.72;5113994;28;20212;-70
2023/04/16 06:48:24;;;;;;;45.27;27.67;;;;;;;8.61;88.92;101634.84;5114043;28;20213;-71
2023/04/16 06:50:50;;;;;;;46.43;27.47;;;;;;;8.61;89.52;101634.00;5114005;28;20196;-71
2023/04/16 06:53:16;;;;;;;43.47;28.00;;;;;;;8.67;89.31;101637.25;5113962;28;20554;-71
2023/04/16 06:55:43;;;;;;;47.57;26.27;;;;;;;8.72;88.68;101637.03;5113932;28;20571;-71
2023/04/16 06:58:09;;;;;;;43.30;27.27;;;;;;;8.76;87.65;101638.56;5113897;28;20672;-71
2023/04/16 07:00:35;;;;;;;40.30;26.60;;;;;;;8.78;87.40;101636.69;5113859;28;20191;-71
2023/04/16 07:03:02;;;;;;;42.93;27.00;;;;;;;8.77;87.66;101640.31;5113863;28;20189;-70
2023/04/16 07:05:29;;;;;;;53.80;28.97;;;;;;;8.78;88.34;101643.84;5114077;28;20213;-70
2023/04/16 07:07:56;;;;;;;50.03;28.53;;;;;;;8.75;88.14;101638.69;5113980;28;20205;-70
2023/04/16 07:10:22;;;;;;;50.57;28.30;;;;;;;8.80;88.10;101637.50;5113808;28;20242;-70
2023/04/16 07:12:49;;;;;;;51.23;27.63;;;;;;;8.84;88.13;101632.88;5114080;28;20542;-70
2023/04/16 07:15:15;;;;;;;57.40;28.27;;;;;;;8.86;87.96;101644.31;5113910;28;20201;-70
2023/04/16 07:17:41;;;;;;;49.03;27.67;;;;;;;8.86;88.06;101645.22;5113629;28;20190;-71
2023/04/16 07:20:08;;;;;;;40.97;26.43;;;;;;;8.97;88.13;101642.00;5113968;28;20181;-71
2023/04/16 07:22:35;;;;;;;45.13;26.07;;;;;;;9.03;87.11;101647.03;5113891;28;20181;-71
2023/04/16 07:25:01;;;;;;;41.03;26.60;;;;;;;9.04;87.43;101653.25;5113540;28;20204;-71
2023/04/16 07:27:28;;;;;;;41.67;26.47;;;;;;;9.11;86.43;101658.19;5113577;28;20237;-70
2023/04/16 07:29:54;;;;;;;48.90;27.80;;;;;;;9.18;86.56;101657.88;5113553;28;20264;-70
2023/04/16 07:32:21;;;;;;;49.23;27.13;;;;;;;9.15;85.93;101661.59;5114156;28;20639;-71
2023/04/16 07:34:48;;;;;;;54.13;29.07;;;;;;;9.18;86.33;101653.41;5113473;28;20209;-71
2023/04/16 07:37:14;;;;;;;44.37;28.40;;;;;;;9.11;85.63;101662.69;5095254;28;20205;-71
2023/04/16 07:39:40;;;;;;;42.40;26.57;;;;;;;9.11;85.72;101658.19;5113746;28;20193;-71
2023/04/16 07:42:07;;;;;;;38.00;26.33;;;;;;;9.17;85.53;101667.72;5113665;28;20191;-71
2023/04/16 07:44:33;;;;;;;37.80;27.43;;;;;;;9.25;85.54;101675.34;5113695;28;20211;-71
2023/04/16 07:46:59;;;;;;;41.37;27.67;;;;;;;9.29;85.13;101669.75;5113540;28;20192;-71
2023/04/16 07:49:28;;;;;;;45.10;27.33;;;;;;;9.35;85.39;101676.59;5113677;28;20260;-71
2023/04/16 07:51:54;;;;;;;38.00;25.83;;;;;;;9.39;85.64;101675.50;5113612;28;20563;-71
2023/04/16 07:54:20;;;;;;;43.17;26.80;;;;;;;9.41;85.73;101681.63;5113749;28;20683;-71
2023/04/16 07:56:47;;;;;;;43.57;26.47;;;;;;;9.51;85.73;101679.34;5113543;28;20689;-71
2023/04/16 07:59:13;;;;;;;45.77;26.30;;;;;;;9.51;84.90;101680.22;5113277;28;20184;-71
2023/04/16 08:01:51;;;;;;;44.27;27.33;;;;;;;9.66;85.10;101683.03;5113261;28;20628;-71
2023/04/16 08:04:23;;;;;;;49.37;28.40;;;;;;;9.72;84.93;101683.56;5113750;28;20197;-71
2023/04/16 08:06:50;;;;;;;40.33;26.23;;;;;;;9.83;85.01;101685.66;5113285;28;20174;-73
2023/04/16 08:09:18;;;;;;;45.70;27.13;;;;;;;9.95;85.28;101689.50;5113508;28;20631;-71
2023/04/16 08:11:45;;;;;;;39.43;26.23;;;;;;;10.00;84.45;101690.97;5113796;28;20177;-71
2023/04/16 08:14:11;;;;;;;39.57;26.30;;;;;;;10.09;83.65;101692.28;5113435;28;20205;-71
2023/04/16 08:16:39;;;;;;;44.30;25.90;;;;;;;10.16;83.03;101698.19;5113457;28;20177;-71
2023/04/16 08:19:05;;;;;;;49.30;25.30;;;;;;;10.19;82.65;101706.03;5115846;28;20268;-71
2023/04/16 08:21:32;;;;;;;41.97;25.57;;;;;;;10.17;82.29;101703.44;5117195;28;20169;-71
2023/04/16 08:23:59;;;;;;;33.00;24.53;;;;;;;10.23;81.56;101700.44;5116757;28;20179;-71
2023/04/16 08:26:26;;;;;;;39.00;25.43;;;;;;;10.30;81.53;101701.00;5117040;28;20185;-71
2023/04/16 08:28:52;;;;;;;36.17;24.43;;;;;;;10.43;82.09;101704.72;5117195;28;20211;-71
2023/04/16 08:31:18;;;;;;;36.93;25.30;;;;;;;10.36;80.69;101707.81;5116880;28;20277;-71
2023/04/16 08:33:45;;;;;;;40.97;25.53;;;;;;;10.40;81.28;101704.03;5116809;28;20214;-71
2023/04/16 08:36:11;;;;;;;35.43;24.53;;;;;;;10.40;80.74;101704.91;5116529;28;20213;-71
2023/04/16 08:38:38;;;;;;;33.47;24.53;;;;;;;10.45;81.16;101707.31;5098735;28;20632;-71
2023/04/16 08:41:08;;;;;;;39.30;25.07;;;;;;;10.50;80.55;101715.97;5116421;28;20193;-70
2023/04/16 08:43:36;;;;;;;31.43;23.67;;;;;;;10.59;80.86;101718.13;5116492;28;20205;-72
2023/04/16 08:46:04;;;;;;;33.47;22.77;;;;;;;10.74;80.85;101718.22;5116334;28;20219;-71
2023/04/16 08:48:32;;;;;;;35.30;24.13;;;;;;;10.81;80.80;101725.81;5116259;28;20193;-71
2023/04/16 08:51:01;;;;;;;32.93;22.83;;;;;;;10.82;79.96;101722.22;5116252;28;20185;-71
2023/04/16 08:53:34;;;;;;;30.57;22.67;;;;;;;10.86;79.21;101725.56;5116160;28;20181;-71
2023/04/16 08:56:03;;;;;;;47.80;23.63;;;;;;;10.91;79.25;101734.19;5116036;28;20209;-71
2023/04/16 08:58:33;;;;;;;38.10;25.37;;;;;;;10.94;79.53;101743.88;5116377;28;20195;-71
2023/04/16 09:01:02;;;;;;;32.60;23.93;;;;;;;10.98;78.43;101732.91;5097777;28;20190;-71
2023/04/16 09:03:30;;;;;;;36.70;24.37;;;;;;;10.93;78.24;101736.81;5115964;28;20191;-71
2023/04/16 09:06:02;;;;;;;27.83;22.13;;;;;;;10.94;79.44;101741.19;5115926;28;20231;-71
2023/04/16 09:08:28;;;;;;;36.50;23.10;;;;;;;10.99;78.91;101739.13;5116064;28;20548;-71
2023/04/16 09:10:55;;;;;;;32.40;22.30;;;;;;;11.06;78.49;101749.41;5115921;28;20181;-71
2023/04/16 09:13:22;;;;;;;28.57;21.97;;;;;;;11.09;77.79;101748.38;5116465;28;20185;-70
2023/04/16 09:15:56;;;;;;;28.63;21.90;;;;;;;11.12;77.40;101744.66;5115780;28;20209;-71
2023/04/16 09:18:23;;;;;;;28.03;21.90;;;;;;;11.11;77.19;101749.16;5116318;28;20181;-71
2023/04/16 09:20:50;;;;;;;26.77;20.97;;;;;;;11.19;78.10;101757.63;5115952;28;20628;-71
2023/04/16 09:23:17;;;;;;;30.20;22.00;;;;;;;11.17;77.77;101755.97;5115906;28;20776;-71
2023/04/16 09:25:43;;;;;;;32.97;22.77;;;;;;;11.38;75.63;101759.22;5115714;28;20226;-71
2023/04/16 09:28:09;;;;;;;29.20;22.13;;;;;;;11.44;75.72;101756.16;5115538;28;20204;-71
2023/04/16 09:30:36;;;;;;;26.57;22.53;;;;;;;11.56;73.89;101755.44;5114718;28;20289;-71
2023/04/16 09:33:22;;;;;;;31.17;21.10;;;;;;;11.55;73.58;101759.09;5115718;28;20272;-71
2023/04/16 09:35:50;;;;;;;29.60;21.00;;;;;;;11.70;74.34;101757.31;5115633;28;20250;-71
2023/04/16 09:38:18;;;;;;;28.13;21.33;;;;;;;11.68;73.16;101754.75;5115570;28;20557;-71
2023/04/16 09:40:46;;;;;;;29.23;21.37;;;;;;;11.67;72.88;101771.78;5115519;28;20648;-71
2023/04/16 09:43:14;;;;;;;30.30;21.77;;;;;;;11.69;73.55;101769.88;5115293;28;20280;-71
2023/04/16 09:45:51;;;;;;;29.17;21.37;;;;;;;11.64;73.23;101773.78;5115332;28;20209;-71
2023/04/16 09:48:28;;;;;;;31.93;23.13;;;;;;;11.59;72.41;101763.34;5115116;28;20209;-71
2023/04/16 09:50:55;;;;;;;27.70;21.83;;;;;;;11.65;74.02;101768.31;5115319;28;20518;-71
2023/04/16 09:53:27;;;;;;;28.80;21.50;;;;;;;11.75;73.55;101765.94;5114986;28;20185;-72
2023/04/16 09:56:02;;;;;;;29.27;22.30;;;;;;;11.91;74.12;101772.16;5115313;28;20238;-71
2023/04/16 09:58:28;;;;;;;31.50;22.00;;;;;;;12.01;74.85;101766.22;5114888;28;20546;-71
2023/04/16 10:01:02;;;;;;;24.47;21.80;;;;;;;12.10;73.08;101763.84;5115171;28;20177;-71
2023/04/16 10:03:32;;;;;;;29.07;20.37;;;;;;;12.11;73.12;101762.00;5114916;28;20207;-71
2023/04/16 10:06:05;;;;;;;32.47;21.13;;;;;;;12.20;74.45;101761.44;5114738;28;20208;-71
2023/04/16 10:08:32;;;;;;;24.20;21.20;;;;;;;12.37;73.38;101775.66;5114908;28;20551;-71
2023/04/16 10:10:58;;;;;;;30.53;21.50;;;;;;;12.40;73.45;101772.75;5115182;28;20256;-71
2023/04/16 10:13:29;;;;;;;34.17;22.47;;;;;;;12.39;73.08;101777.28;5115005;28;20580;-71
2023/04/16 10:15:56;;;;;;;27.93;21.73;;;;;;;12.28;72.12;101783.34;5115144;28;20262;-71
2023/04/16 10:18:23;;;;;;;29.63;23.23;;;;;;;12.24;72.43;101772.88;5115049;28;20272;-71
2023/04/16 10:20:50;;;;;;;27.23;22.23;;;;;;;12.10;72.46;101776.41;5115025;28;20181;-71
2023/04/16 10:23:19;;;;;;;28.57;20.67;;;;;;;12.06;72.86;101781.09;5114498;28;20582;-71
2023/04/16 10:25:48;;;;;;;29.17;23.63;;;;;;;12.04;72.35;101785.72;5114230;28;20209;-71
2023/04/16 10:28:15;;;;;;;34.87;24.07;;;;;;;11.97;74.11;101786.16;5114621;28;20197;-71
2023/04/16 10:30:51;;;;;;;34.63;23.60;;;;;;;11.88;73.95;101788.44;5114382;28;20192;-71
2023/04/16 10:33:20;;;;;;;28.30;22.90;;;;;;;11.94;74.73;101789.88;5114632;28;20165;-71
2023/04/16 10:35:48;;;;;;;28.00;22.67;;;;;;;12.04;75.71;101779.44;5114192;28;20211;-71
2023/04/16 10:38:32;;;;;;;27.73;23.23;;;;;;;12.10;74.71;101784.47;5114471;28;20518;-71
2023/04/16 10:41:01;;;;;;;38.50;22.90;;;;;;;12.27;74.88;101789.66;5114383;28;20185;-71
2023/04/16 10:43:29;;;;;;;32.57;22.17;;;;;;;12.36;74.14;101788.22;5114664;28;20284;-71
2023/04/16 10:45:56;;;;;;;27.07;22.80;;;;;;;12.46;72.19;101789.38;5113998;28;20215;-71
2023/04/16 10:48:23;;;;;;;30.03;23.03;;;;;;;12.42;73.36;101782.44;5114220;28;20580;-71
2023/04/16 10:50:56;;;;;;;34.67;23.03;;;;;;;12.44;72.47;101783.22;5113999;28;20196;-71
2023/04/16 10:53:25;;;;;;;27.10;22.17;;;;;;;12.38;72.51;101783.63;5114216;28;20554;-71
2023/04/16 10:56:11;;;;;;;27.63;22.13;;;;;;;12.43;72.65;101778.81;5114126;28;20209;-71
2023/04/16 10:58:37;;;;;;;31.47;22.20;;;;;;;12.43;70.31;101784.19;5113969;28;20188;-71
2023/04/16 11:01:12;;;;;;;31.63;19.37;;;;;;;12.47;68.74;101782.16;5114142;28;20210;-71
2023/04/16 11:03:43;;;;;;;26.53;21.00;;;;;;;12.58;69.74;101777.00;5113821;28;20188;-71
2023/04/16 11:06:15;;;;;;;27.77;21.13;;;;;;;12.65;69.35;101777.47;5113752;28;20232;-71
2023/04/16 11:08:46;;;;;;;30.77;22.13;;;;;;;12.56;69.71;101774.38;5113680;28;20243;-71
2023/04/16 11:11:21;;;;;;;25.40;21.17;;;;;;;12.70;68.60;101768.13;5113747;28;20180;-71
2023/04/16 11:13:47;;;;;;;28.93;20.53;;;;;;;12.73;68.87;101772.47;5113977;28;20188;-71
2023/04/16 11:16:15;;;;;;;25.80;20.60;;;;;;;12.90;68.78;101766.84;5113670;28;20185;-71